Terminal Aerodrome Forecast
Issued by NWS Albany, NY

Home | Current Version | Previous Version | Text Only | Print | Product List | Glossary On
Versions: 1 2 3 4 5 6 7 8 9 10 11 12 13 14 15 16 17 18 19
000
FTUS41 KALY 110500
TAFPOU
TAF
KPOU 110524Z 1106/1206 00000KT P6SM OVC250
     FM111200 36003KT P6SM SCT250
     FM111500 34005KT P6SM SKC
     FM112200 VRB03KT P6SM SCT070=

USA.gov is the U.S. government's official web portal to all federal, state and local government web resources and services.